sensor_id;sensor_type;location;lat;lon;timestamp;temperature;humidity
55135;DHT22;41031;44.750;11.308;2024-01-30T00:01:03;3.30;99.90
55135;DHT22;41031;44.750;11.308;2024-01-30T00:03:30;3.30;99.90
55135;DHT22;41031;44.750;11.308;2024-01-30T00:05:57;3.20;99.90
55135;DHT22;41031;44.750;11.308;2024-01-30T00:08:26;3.20;99.90
55135;DHT22;41031;44.750;11.308;2024-01-30T00:10:53;3.10;99.90
55135;DHT22;41031;44.750;11.308;2024-01-30T00:13:20;3.00;99.90
55135;DHT22;41031;44.750;11.308;2024-01-30T00:15:47;3.00;99.90
55135;DHT22;41031;44.750;11.308;2024-01-30T00:18:15;2.90;99.90
55135;DHT22;41031;44.750;11.308;2024-01-30T00:20:42;2.80;99.90
55135;DHT22;41031;44.750;11.308;2024-01-30T00:23:09;2.80;99.90
55135;DHT22;41031;44.750;11.308;2024-01-30T00:25:37;2.80;99.90
55135;DHT22;41031;44.750;11.308;2024-01-30T00:28:04;2.70;99.90
55135;DHT22;41031;44.750;11.308;2024-01-30T00:30:31;2.70;99.90
55135;DHT22;41031;44.750;11.308;2024-01-30T00:32:58;2.70;99.90
55135;DHT22;41031;44.750;11.308;2024-01-30T00:35:25;2.70;99.90
55135;DHT22;41031;44.750;11.308;2024-01-30T00:37:52;2.70;99.90
55135;DHT22;41031;44.750;11.308;2024-01-30T00:40:19;2.70;99.90
55135;DHT22;41031;44.750;11.308;2024-01-30T00:42:47;2.70;99.90
55135;DHT22;41031;44.750;11.308;2024-01-30T00:45:15;2.70;99.90
55135;DHT22;41031;44.750;11.308;2024-01-30T00:47:43;2.70;99.90
55135;DHT22;41031;44.750;11.308;2024-01-30T00:50:11;2.70;99.90
55135;DHT22;41031;44.750;11.308;2024-01-30T00:52:38;2.60;99.90
55135;DHT22;41031;44.750;11.308;2024-01-30T00:55:07;2.70;99.90
55135;DHT22;41031;44.750;11.308;2024-01-30T00:57:34;2.60;99.90
55135;DHT22;41031;44.750;11.308;2024-01-30T01:00:01;2.60;99.90
55135;DHT22;41031;44.750;11.308;2024-01-30T01:02:28;2.60;99.90
55135;DHT22;41031;44.750;11.308;2024-01-30T01:04:55;2.60;99.90
55135;DHT22;41031;44.750;11.308;2024-01-30T01:07:22;2.60;99.90
55135;DHT22;41031;44.750;11.308;2024-01-30T01:09:49;2.60;99.90
55135;DHT22;41031;44.750;11.308;2024-01-30T01:12:16;2.60;99.90
55135;DHT22;41031;44.750;11.308;2024-01-30T01:14:43;2.60;99.90
55135;DHT22;41031;44.750;11.308;2024-01-30T01:17:10;2.60;99.90
55135;DHT22;41031;44.750;11.308;2024-01-30T01:19:37;2.60;99.90
55135;DHT22;41031;44.750;11.308;2024-01-30T01:22:04;2.60;99.90
55135;DHT22;41031;44.750;11.308;2024-01-30T01:24:32;2.60;99.90
55135;DHT22;41031;44.750;11.308;2024-01-30T01:26:59;2.60;99.90
55135;DHT22;41031;44.750;11.308;2024-01-30T01:29:26;2.60;99.90
55135;DHT22;41031;44.750;11.308;2024-01-30T01:31:56;2.60;99.90
55135;DHT22;41031;44.750;11.308;2024-01-30T01:34:24;2.60;99.90
55135;DHT22;41031;44.750;11.308;2024-01-30T01:36:56;2.60;99.90
55135;DHT22;41031;44.750;11.308;2024-01-30T01:39:23;2.60;99.90
55135;DHT22;41031;44.750;11.308;2024-01-30T01:41:51;2.60;99.90
55135;DHT22;41031;44.750;11.308;2024-01-30T01:44:18;2.60;99.90
55135;DHT22;41031;44.750;11.308;2024-01-30T01:46:46;2.70;99.90
55135;DHT22;41031;44.750;11.308;2024-01-30T01:49:14;2.70;99.90
55135;DHT22;41031;44.750;11.308;2024-01-30T01:51:43;2.70;99.90
55135;DHT22;41031;44.750;11.308;2024-01-30T01:54:12;2.70;99.90
55135;DHT22;41031;44.750;11.308;2024-01-30T01:56:39;2.70;99.90
55135;DHT22;41031;44.750;11.308;2024-01-30T01:59:07;2.80;99.90
55135;DHT22;41031;44.750;11.308;2024-01-30T02:01:38;2.80;99.90
55135;DHT22;41031;44.750;11.308;2024-01-30T02:04:06;2.80;99.90
55135;DHT22;41031;44.750;11.308;2024-01-30T02:06:37;2.80;99.90
55135;DHT22;41031;44.750;11.308;2024-01-30T02:09:05;2.90;99.90
55135;DHT22;41031;44.750;11.308;2024-01-30T02:11:32;2.90;99.90
55135;DHT22;41031;44.750;11.308;2024-01-30T02:14:03;2.90;99.90
55135;DHT22;41031;44.750;11.308;2024-01-30T02:16:34;2.90;99.90
55135;DHT22;41031;44.750;11.308;2024-01-30T02:19:01;2.90;99.90
55135;DHT22;41031;44.750;11.308;2024-01-30T02:21:29;2.90;99.90
55135;DHT22;41031;44.750;11.308;2024-01-30T02:23:56;2.90;99.90
55135;DHT22;41031;44.750;11.308;2024-01-30T02:26:26;2.90;99.90
55135;DHT22;41031;44.750;11.308;2024-01-30T02:28:53;2.90;99.90
55135;DHT22;41031;44.750;11.308;2024-01-30T02:31:20;2.80;99.90
55135;DHT22;41031;44.750;11.308;2024-01-30T02:33:47;2.80;99.90
55135;DHT22;41031;44.750;11.308;2024-01-30T02:36:14;2.80;99.90
55135;DHT22;41031;44.750;11.308;2024-01-30T02:38:42;2.80;99.90
55135;DHT22;41031;44.750;11.308;2024-01-30T02:41:09;2.80;99.90
55135;DHT22;41031;44.750;11.308;2024-01-30T02:43:36;2.80;99.90
55135;DHT22;41031;44.750;11.308;2024-01-30T02:46:03;2.80;99.90
55135;DHT22;41031;44.750;11.308;2024-01-30T02:48:30;2.80;99.90
55135;DHT22;41031;44.750;11.308;2024-01-30T02:50:57;2.70;99.90
55135;DHT22;41031;44.750;11.308;2024-01-30T02:53:24;2.70;99.90
55135;DHT22;41031;44.750;11.308;2024-01-30T02:55:52;2.70;99.90
55135;DHT22;41031;44.750;11.308;2024-01-30T02:58:19;2.60;99.90
55135;DHT22;41031;44.750;11.308;2024-01-30T03:00:46;2.60;99.90
55135;DHT22;41031;44.750;11.308;2024-01-30T03:03:13;2.60;99.90
55135;DHT22;41031;44.750;11.308;2024-01-30T03:05:40;2.70;99.90
55135;DHT22;41031;44.750;11.308;2024-01-30T03:08:08;2.70;99.90
55135;DHT22;41031;44.750;11.308;2024-01-30T03:10:35;2.70;99.90
55135;DHT22;41031;44.750;11.308;2024-01-30T03:13:02;2.70;99.90
55135;DHT22;41031;44.750;11.308;2024-01-30T03:15:29;2.70;99.90
55135;DHT22;41031;44.750;11.308;2024-01-30T03:17:56;2.70;99.90
55135;DHT22;41031;44.750;11.308;2024-01-30T03:20:23;2.70;99.90
55135;DHT22;41031;44.750;11.308;2024-01-30T03:22:51;2.70;99.90
55135;DHT22;41031;44.750;11.308;2024-01-30T03:25:18;2.70;99.90
55135;DHT22;41031;44.750;11.308;2024-01-30T03:27:45;2.70;99.90
55135;DHT22;41031;44.750;11.308;2024-01-30T03:30:12;2.70;99.90
55135;DHT22;41031;44.750;11.308;2024-01-30T03:32:39;2.60;99.90
55135;DHT22;41031;44.750;11.308;2024-01-30T03:35:06;2.60;99.90
55135;DHT22;41031;44.750;11.308;2024-01-30T03:37:34;2.60;99.90
55135;DHT22;41031;44.750;11.308;2024-01-30T03:40:03;2.60;99.90
55135;DHT22;41031;44.750;11.308;2024-01-30T03:42:30;2.60;99.90
55135;DHT22;41031;44.750;11.308;2024-01-30T03:44:57;2.60;99.90
55135;DHT22;41031;44.750;11.308;2024-01-30T03:47:24;2.60;99.90
55135;DHT22;41031;44.750;11.308;2024-01-30T03:49:51;2.60;99.90
55135;DHT22;41031;44.750;11.308;2024-01-30T03:52:18;2.60;99.90
55135;DHT22;41031;44.750;11.308;2024-01-30T03:54:46;2.60;99.90
55135;DHT22;41031;44.750;11.308;2024-01-30T03:57:13;2.60;99.90
55135;DHT22;41031;44.750;11.308;2024-01-30T03:59:42;2.60;99.90
55135;DHT22;41031;44.750;11.308;2024-01-30T04:02:10;2.60;99.90
55135;DHT22;41031;44.750;11.308;2024-01-30T04:04:38;2.60;99.90
55135;DHT22;41031;44.750;11.308;2024-01-30T04:07:05;2.60;99.90
55135;DHT22;41031;44.750;11.308;2024-01-30T04:09:33;2.60;99.90
55135;DHT22;41031;44.750;11.308;2024-01-30T04:12:00;2.50;99.90
55135;DHT22;41031;44.750;11.308;2024-01-30T04:14:29;2.60;99.90
55135;DHT22;41031;44.750;11.308;2024-01-30T04:16:56;2.60;99.90
55135;DHT22;41031;44.750;11.308;2024-01-30T04:19:24;2.60;99.90
55135;DHT22;41031;44.750;11.308;2024-01-30T04:21:51;2.60;99.90
55135;DHT22;41031;44.750;11.308;2024-01-30T04:24:18;2.60;99.90
55135;DHT22;41031;44.750;11.308;2024-01-30T04:26:45;2.60;99.90
55135;DHT22;41031;44.750;11.308;2024-01-30T04:29:12;2.60;99.90
55135;DHT22;41031;44.750;11.308;2024-01-30T04:31:39;2.60;99.90
55135;DHT22;41031;44.750;11.308;2024-01-30T04:34:06;2.50;99.90
55135;DHT22;41031;44.750;11.308;2024-01-30T04:36:34;2.50;99.90
55135;DHT22;41031;44.750;11.308;2024-01-30T04:39:01;2.50;99.90
55135;DHT22;41031;44.750;11.308;2024-01-30T04:41:27;2.40;99.90
55135;DHT22;41031;44.750;11.308;2024-01-30T04:43:58;2.40;99.90
55135;DHT22;41031;44.750;11.308;2024-01-30T04:46:25;2.50;99.90
55135;DHT22;41031;44.750;11.308;2024-01-30T04:48:52;2.50;99.90
55135;DHT22;41031;44.750;11.308;2024-01-30T04:51:19;2.50;99.90
55135;DHT22;41031;44.750;11.308;2024-01-30T04:53:46;2.50;99.90
55135;DHT22;41031;44.750;11.308;2024-01-30T04:56:13;2.50;99.90
55135;DHT22;41031;44.750;11.308;2024-01-30T04:58:40;2.50;99.90
55135;DHT22;41031;44.750;11.308;2024-01-30T05:01:08;2.60;99.90
55135;DHT22;41031;44.750;11.308;2024-01-30T05:03:35;2.60;99.90
55135;DHT22;41031;44.750;11.308;2024-01-30T05:06:02;2.60;99.90
55135;DHT22;41031;44.750;11.308;2024-01-30T05:08:29;2.60;99.90
55135;DHT22;41031;44.750;11.308;2024-01-30T05:10:59;2.70;99.90
55135;DHT22;41031;44.750;11.308;2024-01-30T05:13:26;2.70;99.90
55135;DHT22;41031;44.750;11.308;2024-01-30T05:15:53;2.70;99.90
55135;DHT22;41031;44.750;11.308;2024-01-30T05:18:20;2.70;99.90
55135;DHT22;41031;44.750;11.308;2024-01-30T05:20:47;2.70;99.90
55135;DHT22;41031;44.750;11.308;2024-01-30T05:23:15;2.70;99.90
55135;DHT22;41031;44.750;11.308;2024-01-30T05:25:42;2.70;99.90
55135;DHT22;41031;44.750;11.308;2024-01-30T05:28:09;2.70;99.90
55135;DHT22;41031;44.750;11.308;2024-01-30T05:30:36;2.70;99.90
55135;DHT22;41031;44.750;11.308;2024-01-30T05:33:03;2.70;99.90
55135;DHT22;41031;44.750;11.308;2024-01-30T05:35:30;2.80;99.90
55135;DHT22;41031;44.750;11.308;2024-01-30T05:37:58;2.80;99.90
55135;DHT22;41031;44.750;11.308;2024-01-30T05:40:25;2.80;99.90
55135;DHT22;41031;44.750;11.308;2024-01-30T05:42:52;2.70;99.90
55135;DHT22;41031;44.750;11.308;2024-01-30T05:45:19;2.80;99.90
55135;DHT22;41031;44.750;11.308;2024-01-30T05:47:46;2.70;99.90
55135;DHT22;41031;44.750;11.308;2024-01-30T05:50:14;2.70;99.90
55135;DHT22;41031;44.750;11.308;2024-01-30T05:52:41;2.70;99.90
55135;DHT22;41031;44.750;11.308;2024-01-30T05:55:08;2.70;99.90
55135;DHT22;41031;44.750;11.308;2024-01-30T05:57:36;2.80;99.90
55135;DHT22;41031;44.750;11.308;2024-01-30T06:00:07;2.80;99.90
55135;DHT22;41031;44.750;11.308;2024-01-30T06:02:35;2.80;99.90
55135;DHT22;41031;44.750;11.308;2024-01-30T06:05:02;2.80;99.90
55135;DHT22;41031;44.750;11.308;2024-01-30T06:07:30;2.80;99.90
55135;DHT22;41031;44.750;11.308;2024-01-30T06:10:02;2.80;99.90
55135;DHT22;41031;44.750;11.308;2024-01-30T06:12:30;2.80;99.90
55135;DHT22;41031;44.750;11.308;2024-01-30T06:14:57;2.80;99.90
55135;DHT22;41031;44.750;11.308;2024-01-30T06:17:24;2.80;99.90
55135;DHT22;41031;44.750;11.308;2024-01-30T06:19:51;2.80;99.90
55135;DHT22;41031;44.750;11.308;2024-01-30T06:22:19;2.80;99.90
55135;DHT22;41031;44.750;11.308;2024-01-30T06:24:46;2.80;99.90
55135;DHT22;41031;44.750;11.308;2024-01-30T06:27:16;2.80;99.90
55135;DHT22;41031;44.750;11.308;2024-01-30T06:29:44;2.80;99.90
55135;DHT22;41031;44.750;11.308;2024-01-30T06:32:11;2.70;99.90
55135;DHT22;41031;44.750;11.308;2024-01-30T06:34:38;2.70;99.90
55135;DHT22;41031;44.750;11.308;2024-01-30T06:37:07;2.70;99.90
55135;DHT22;41031;44.750;11.308;2024-01-30T06:39:34;2.70;99.90
55135;DHT22;41031;44.750;11.308;2024-01-30T06:42:01;2.70;99.90
55135;DHT22;41031;44.750;11.308;2024-01-30T06:44:28;2.70;99.90
55135;DHT22;41031;44.750;11.308;2024-01-30T06:46:59;2.60;99.90
55135;DHT22;41031;44.750;11.308;2024-01-30T06:49:26;2.60;99.90
55135;DHT22;41031;44.750;11.308;2024-01-30T06:51:53;2.60;99.90
55135;DHT22;41031;44.750;11.308;2024-01-30T06:54:20;2.60;99.90
55135;DHT22;41031;44.750;11.308;2024-01-30T06:56:47;2.60;99.90
55135;DHT22;41031;44.750;11.308;2024-01-30T06:59:14;2.60;99.90
55135;DHT22;41031;44.750;11.308;2024-01-30T07:01:41;2.60;99.90
55135;DHT22;41031;44.750;11.308;2024-01-30T07:04:08;2.60;99.90
55135;DHT22;41031;44.750;11.308;2024-01-30T07:06:35;2.60;99.90
55135;DHT22;41031;44.750;11.308;2024-01-30T07:09:02;2.60;99.90
55135;DHT22;41031;44.750;11.308;2024-01-30T07:11:30;2.60;99.90
55135;DHT22;41031;44.750;11.308;2024-01-30T07:13:57;2.60;99.90
55135;DHT22;41031;44.750;11.308;2024-01-30T07:16:24;2.70;99.90
55135;DHT22;41031;44.750;11.308;2024-01-30T07:18:51;2.70;99.90
55135;DHT22;41031;44.750;11.308;2024-01-30T07:21:19;2.70;99.90
55135;DHT22;41031;44.750;11.308;2024-01-30T07:23:48;2.70;99.90
55135;DHT22;41031;44.750;11.308;2024-01-30T07:26:16;2.70;99.90
55135;DHT22;41031;44.750;11.308;2024-01-30T07:28:43;2.80;99.90
55135;DHT22;41031;44.750;11.308;2024-01-30T07:31:10;2.80;99.90
55135;DHT22;41031;44.750;11.308;2024-01-30T07:33:38;2.80;99.90
55135;DHT22;41031;44.750;11.308;2024-01-30T07:36:05;2.80;99.90
55135;DHT22;41031;44.750;11.308;2024-01-30T07:38:32;2.80;99.90
55135;DHT22;41031;44.750;11.308;2024-01-30T07:40:59;2.80;99.90
55135;DHT22;41031;44.750;11.308;2024-01-30T07:43:26;2.80;99.90
55135;DHT22;41031;44.750;11.308;2024-01-30T07:45:53;2.70;99.90
55135;DHT22;41031;44.750;11.308;2024-01-30T07:48:20;2.70;99.90
55135;DHT22;41031;44.750;11.308;2024-01-30T07:50:48;2.70;99.90
55135;DHT22;41031;44.750;11.308;2024-01-30T07:53:15;2.80;99.90
55135;DHT22;41031;44.750;11.308;2024-01-30T07:55:42;2.80;99.90
55135;DHT22;41031;44.750;11.308;2024-01-30T07:58:13;2.80;99.90
55135;DHT22;41031;44.750;11.308;2024-01-30T08:00:40;2.80;99.90
55135;DHT22;41031;44.750;11.308;2024-01-30T08:03:08;2.80;99.90
55135;DHT22;41031;44.750;11.308;2024-01-30T08:05:35;2.80;99.90
55135;DHT22;41031;44.750;11.308;2024-01-30T08:08:02;2.80;99.90
55135;DHT22;41031;44.750;11.308;2024-01-30T08:10:29;2.80;99.90
55135;DHT22;41031;44.750;11.308;2024-01-30T08:12:57;2.90;99.90
55135;DHT22;41031;44.750;11.308;2024-01-30T08:15:24;2.90;99.90
55135;DHT22;41031;44.750;11.308;2024-01-30T08:17:51;2.90;99.90
55135;DHT22;41031;44.750;11.308;2024-01-30T08:20:22;3.00;99.90
55135;DHT22;41031;44.750;11.308;2024-01-30T08:22:49;3.00;99.90
55135;DHT22;41031;44.750;11.308;2024-01-30T08:25:16;3.10;99.90
55135;DHT22;41031;44.750;11.308;2024-01-30T08:27:44;3.10;99.90
55135;DHT22;41031;44.750;11.308;2024-01-30T08:30:12;3.10;99.90
55135;DHT22;41031;44.750;11.308;2024-01-30T08:32:39;3.20;99.90
55135;DHT22;41031;44.750;11.308;2024-01-30T08:35:06;3.20;99.90
55135;DHT22;41031;44.750;11.308;2024-01-30T08:37:34;3.30;99.90
55135;DHT22;41031;44.750;11.308;2024-01-30T08:40:02;3.30;99.90
55135;DHT22;41031;44.750;11.308;2024-01-30T08:42:31;3.30;99.90
55135;DHT22;41031;44.750;11.308;2024-01-30T08:45:00;3.30;99.90
55135;DHT22;41031;44.750;11.308;2024-01-30T08:47:27;3.30;99.90
55135;DHT22;41031;44.750;11.308;2024-01-30T08:49:54;3.30;99.90
55135;DHT22;41031;44.750;11.308;2024-01-30T08:52:21;3.40;99.90
55135;DHT22;41031;44.750;11.308;2024-01-30T08:54:49;3.40;99.90
55135;DHT22;41031;44.750;11.308;2024-01-30T08:57:16;3.40;99.90
55135;DHT22;41031;44.750;11.308;2024-01-30T08:59:43;3.50;99.90
55135;DHT22;41031;44.750;11.308;2024-01-30T09:02:13;3.60;99.90
55135;DHT22;41031;44.750;11.308;2024-01-30T09:04:43;3.60;99.90
55135;DHT22;41031;44.750;11.308;2024-01-30T09:07:10;3.60;99.90
55135;DHT22;41031;44.750;11.308;2024-01-30T09:09:39;3.70;99.90
55135;DHT22;41031;44.750;11.308;2024-01-30T09:12:08;3.70;99.90
55135;DHT22;41031;44.750;11.308;2024-01-30T09:14:37;3.80;99.90
55135;DHT22;41031;44.750;11.308;2024-01-30T09:17:04;3.80;99.90
55135;DHT22;41031;44.750;11.308;2024-01-30T09:19:31;3.90;99.90
55135;DHT22;41031;44.750;11.308;2024-01-30T09:21:59;3.90;99.90
55135;DHT22;41031;44.750;11.308;2024-01-30T09:24:27;3.90;99.90
55135;DHT22;41031;44.750;11.308;2024-01-30T09:26:54;4.00;99.90
55135;DHT22;41031;44.750;11.308;2024-01-30T09:29:21;4.00;99.90
55135;DHT22;41031;44.750;11.308;2024-01-30T09:31:48;4.10;99.90
55135;DHT22;41031;44.750;11.308;2024-01-30T09:34:15;4.10;99.90
55135;DHT22;41031;44.750;11.308;2024-01-30T09:36:43;4.20;99.90
55135;DHT22;41031;44.750;11.308;2024-01-30T09:39:10;4.30;99.90
55135;DHT22;41031;44.750;11.308;2024-01-30T09:42:02;4.40;99.90
55135;DHT22;41031;44.750;11.308;2024-01-30T09:44:35;4.50;99.90
55135;DHT22;41031;44.750;11.308;2024-01-30T09:47:03;4.60;99.90
55135;DHT22;41031;44.750;11.308;2024-01-30T09:49:32;4.70;99.90
55135;DHT22;41031;44.750;11.308;2024-01-30T09:52:02;4.70;99.90
55135;DHT22;41031;44.750;11.308;2024-01-30T09:54:32;4.80;99.90
55135;DHT22;41031;44.750;11.308;2024-01-30T09:57:03;4.80;99.90
55135;DHT22;41031;44.750;11.308;2024-01-30T09:59:31;4.80;99.90
55135;DHT22;41031;44.750;11.308;2024-01-30T10:01:59;4.80;99.90
55135;DHT22;41031;44.750;11.308;2024-01-30T10:04:26;4.90;99.90
55135;DHT22;41031;44.750;11.308;2024-01-30T10:06:53;5.00;99.90
55135;DHT22;41031;44.750;11.308;2024-01-30T10:09:21;5.30;99.90
55135;DHT22;41031;44.750;11.308;2024-01-30T10:11:49;5.40;99.90
55135;DHT22;41031;44.750;11.308;2024-01-30T10:14:18;5.50;99.80
55135;DHT22;41031;44.750;11.308;2024-01-30T10:16:46;5.40;99.50
55135;DHT22;41031;44.750;11.308;2024-01-30T10:19:13;5.40;99.30
55135;DHT22;41031;44.750;11.308;2024-01-30T10:21:40;5.40;99.40
55135;DHT22;41031;44.750;11.308;2024-01-30T10:24:07;5.50;99.40
55135;DHT22;41031;44.750;11.308;2024-01-30T10:26:34;5.50;98.70
55135;DHT22;41031;44.750;11.308;2024-01-30T10:29:05;5.40;98.40
55135;DHT22;41031;44.750;11.308;2024-01-30T10:31:32;5.40;98.80
55135;DHT22;41031;44.750;11.308;2024-01-30T10:33:59;5.40;99.00
55135;DHT22;41031;44.750;11.308;2024-01-30T10:36:43;5.50;99.20
55135;DHT22;41031;44.750;11.308;2024-01-30T10:39:17;5.50;99.10
55135;DHT22;41031;44.750;11.308;2024-01-30T10:41:44;5.50;98.90
55135;DHT22;41031;44.750;11.308;2024-01-30T10:44:19;5.40;98.70
55135;DHT22;41031;44.750;11.308;2024-01-30T10:46:53;5.40;98.60
55135;DHT22;41031;44.750;11.308;2024-01-30T10:49:23;5.30;98.60
55135;DHT22;41031;44.750;11.308;2024-01-30T10:51:52;5.30;98.60
55135;DHT22;41031;44.750;11.308;2024-01-30T10:54:21;5.20;98.50
55135;DHT22;41031;44.750;11.308;2024-01-30T10:56:49;5.10;98.50
55135;DHT22;41031;44.750;11.308;2024-01-30T10:59:17;5.00;98.60
55135;DHT22;41031;44.750;11.308;2024-01-30T11:01:45;5.00;98.80
55135;DHT22;41031;44.750;11.308;2024-01-30T11:04:12;5.00;99.10
55135;DHT22;41031;44.750;11.308;2024-01-30T11:06:42;5.10;99.30
55135;DHT22;41031;44.750;11.308;2024-01-30T11:09:11;5.10;99.50
55135;DHT22;41031;44.750;11.308;2024-01-30T11:11:56;5.10;99.20
55135;DHT22;41031;44.750;11.308;2024-01-30T11:14:29;5.00;99.10
55135;DHT22;41031;44.750;11.308;2024-01-30T11:16:59;5.00;99.10
55135;DHT22;41031;44.750;11.308;2024-01-30T11:19:30;5.00;99.30
55135;DHT22;41031;44.750;11.308;2024-01-30T11:21:57;5.00;99.40
55135;DHT22;41031;44.750;11.308;2024-01-30T11:24:25;5.00;99.40
55135;DHT22;41031;44.750;11.308;2024-01-30T11:26:56;5.00;99.50
55135;DHT22;41031;44.750;11.308;2024-01-30T11:29:28;5.00;99.70
55135;DHT22;41031;44.750;11.308;2024-01-30T11:31:57;5.10;99.90
55135;DHT22;41031;44.750;11.308;2024-01-30T11:34:24;5.20;99.90
55135;DHT22;41031;44.750;11.308;2024-01-30T11:36:59;5.20;99.90
55135;DHT22;41031;44.750;11.308;2024-01-30T11:39:27;5.20;99.90
55135;DHT22;41031;44.750;11.308;2024-01-30T11:41:55;5.30;99.90
55135;DHT22;41031;44.750;11.308;2024-01-30T11:44:22;5.30;99.90
55135;DHT22;41031;44.750;11.308;2024-01-30T11:46:51;5.30;99.70
55135;DHT22;41031;44.750;11.308;2024-01-30T11:49:19;5.20;99.60
55135;DHT22;41031;44.750;11.308;2024-01-30T11:51:46;5.20;99.70
55135;DHT22;41031;44.750;11.308;2024-01-30T11:54:16;5.20;99.90
55135;DHT22;41031;44.750;11.308;2024-01-30T11:56:43;5.20;99.90
55135;DHT22;41031;44.750;11.308;2024-01-30T11:59:10;5.30;99.90
55135;DHT22;41031;44.750;11.308;2024-01-30T12:01:37;5.40;99.90
55135;DHT22;41031;44.750;11.308;2024-01-30T12:04:05;5.50;99.90
55135;DHT22;41031;44.750;11.308;2024-01-30T12:06:37;5.60;99.90
55135;DHT22;41031;44.750;11.308;2024-01-30T12:09:05;5.70;99.90
55135;DHT22;41031;44.750;11.308;2024-01-30T12:11:48;5.90;99.90
55135;DHT22;41031;44.750;11.308;2024-01-30T12:14:17;5.90;99.90
55135;DHT22;41031;44.750;11.308;2024-01-30T12:16:48;6.00;99.90
55135;DHT22;41031;44.750;11.308;2024-01-30T12:19:23;6.00;99.90
55135;DHT22;41031;44.750;11.308;2024-01-30T12:21:57;5.90;99.80
55135;DHT22;41031;44.750;11.308;2024-01-30T12:24:29;5.90;99.80
55135;DHT22;41031;44.750;11.308;2024-01-30T12:26:59;5.80;99.70
55135;DHT22;41031;44.750;11.308;2024-01-30T12:29:27;5.80;99.70
55135;DHT22;41031;44.750;11.308;2024-01-30T12:32:00;5.80;99.90
55135;DHT22;41031;44.750;11.308;2024-01-30T12:34:27;5.90;99.90
55135;DHT22;41031;44.750;11.308;2024-01-30T12:36:55;6.00;99.90
55135;DHT22;41031;44.750;11.308;2024-01-30T12:39:22;6.10;99.90
55135;DHT22;41031;44.750;11.308;2024-01-30T12:41:51;6.30;99.90
55135;DHT22;41031;44.750;11.308;2024-01-30T12:44:18;6.50;99.90
55135;DHT22;41031;44.750;11.308;2024-01-30T12:46:47;6.60;99.90
55135;DHT22;41031;44.750;11.308;2024-01-30T12:49:14;6.70;99.90
55135;DHT22;41031;44.750;11.308;2024-01-30T12:51:43;6.70;99.80
55135;DHT22;41031;44.750;11.308;2024-01-30T12:54:10;6.70;99.50
55135;DHT22;41031;44.750;11.308;2024-01-30T12:56:39;6.70;98.90
55135;DHT22;41031;44.750;11.308;2024-01-30T12:59:06;6.60;98.60
55135;DHT22;41031;44.750;11.308;2024-01-30T13:01:33;6.40;98.50
55135;DHT22;41031;44.750;11.308;2024-01-30T13:04:00;6.30;98.40
55135;DHT22;41031;44.750;11.308;2024-01-30T13:06:27;6.20;98.50
55135;DHT22;41031;44.750;11.308;2024-01-30T13:08:54;6.10;98.60
55135;DHT22;41031;44.750;11.308;2024-01-30T13:11:22;6.10;98.80
55135;DHT22;41031;44.750;11.308;2024-01-30T13:13:49;6.00;98.70
55135;DHT22;41031;44.750;11.308;2024-01-30T13:16:16;6.00;98.90
55135;DHT22;41031;44.750;11.308;2024-01-30T13:18:44;6.00;99.10
55135;DHT22;41031;44.750;11.308;2024-01-30T13:21:11;6.10;99.40
55135;DHT22;41031;44.750;11.308;2024-01-30T13:23:38;6.20;99.60
55135;DHT22;41031;44.750;11.308;2024-01-30T13:26:05;6.30;99.60
55135;DHT22;41031;44.750;11.308;2024-01-30T13:28:33;6.40;99.60
55135;DHT22;41031;44.750;11.308;2024-01-30T13:31:00;6.40;99.50
55135;DHT22;41031;44.750;11.308;2024-01-30T13:33:27;6.40;99.40
55135;DHT22;41031;44.750;11.308;2024-01-30T13:35:54;6.40;99.30
55135;DHT22;41031;44.750;11.308;2024-01-30T13:38:21;6.30;99.30
55135;DHT22;41031;44.750;11.308;2024-01-30T13:40:49;6.20;99.20
55135;DHT22;41031;44.750;11.308;2024-01-30T13:43:16;6.20;99.30
55135;DHT22;41031;44.750;11.308;2024-01-30T13:45:44;6.20;99.30
55135;DHT22;41031;44.750;11.308;2024-01-30T13:48:12;6.20;99.60
55135;DHT22;41031;44.750;11.308;2024-01-30T13:50:40;6.30;99.60
55135;DHT22;41031;44.750;11.308;2024-01-30T13:53:07;6.40;99.70
55135;DHT22;41031;44.750;11.308;2024-01-30T13:55:35;6.50;99.70
55135;DHT22;41031;44.750;11.308;2024-01-30T13:58:02;6.60;99.70
55135;DHT22;41031;44.750;11.308;2024-01-30T14:00:29;6.70;99.60
55135;DHT22;41031;44.750;11.308;2024-01-30T14:02:56;6.80;99.50
55135;DHT22;41031;44.750;11.308;2024-01-30T14:05:28;6.80;99.30
55135;DHT22;41031;44.750;11.308;2024-01-30T14:07:57;6.90;99.30
55135;DHT22;41031;44.750;11.308;2024-01-30T14:10:25;6.90;99.20
55135;DHT22;41031;44.750;11.308;2024-01-30T14:12:52;6.90;99.10
55135;DHT22;41031;44.750;11.308;2024-01-30T14:15:19;7.00;99.00
55135;DHT22;41031;44.750;11.308;2024-01-30T14:17:55;7.00;99.00
55135;DHT22;41031;44.750;11.308;2024-01-30T14:20:23;7.00;99.00
55135;DHT22;41031;44.750;11.308;2024-01-30T14:22:50;7.00;98.90
55135;DHT22;41031;44.750;11.308;2024-01-30T14:25:18;7.00;98.80
55135;DHT22;41031;44.750;11.308;2024-01-30T14:27:46;7.00;98.80
55135;DHT22;41031;44.750;11.308;2024-01-30T14:30:14;7.00;98.70
55135;DHT22;41031;44.750;11.308;2024-01-30T14:32:41;7.00;98.70
55135;DHT22;41031;44.750;11.308;2024-01-30T14:35:11;7.00;98.80
55135;DHT22;41031;44.750;11.308;2024-01-30T14:37:39;7.00;98.70
55135;DHT22;41031;44.750;11.308;2024-01-30T14:40:07;7.00;98.80
55135;DHT22;41031;44.750;11.308;2024-01-30T14:42:34;7.00;98.80
55135;DHT22;41031;44.750;11.308;2024-01-30T14:45:03;7.00;98.80
55135;DHT22;41031;44.750;11.308;2024-01-30T14:47:31;7.00;98.80
55135;DHT22;41031;44.750;11.308;2024-01-30T14:49:58;6.90;98.80
55135;DHT22;41031;44.750;11.308;2024-01-30T14:52:25;6.90;98.80
55135;DHT22;41031;44.750;11.308;2024-01-30T14:54:52;6.90;98.80
55135;DHT22;41031;44.750;11.308;2024-01-30T14:57:20;6.90;98.80
55135;DHT22;41031;44.750;11.308;2024-01-30T14:59:47;6.90;98.80
55135;DHT22;41031;44.750;11.308;2024-01-30T15:02:15;6.90;98.70
55135;DHT22;41031;44.750;11.308;2024-01-30T15:04:42;6.90;98.80
55135;DHT22;41031;44.750;11.308;2024-01-30T15:07:10;6.90;98.80
55135;DHT22;41031;44.750;11.308;2024-01-30T15:09:41;6.90;98.80
55135;DHT22;41031;44.750;11.308;2024-01-30T15:12:08;7.00;98.80
55135;DHT22;41031;44.750;11.308;2024-01-30T15:14:35;7.00;98.80
55135;DHT22;41031;44.750;11.308;2024-01-30T15:17:02;7.00;98.80
55135;DHT22;41031;44.750;11.308;2024-01-30T15:19:29;6.90;98.70
55135;DHT22;41031;44.750;11.308;2024-01-30T15:21:57;6.90;98.70
55135;DHT22;41031;44.750;11.308;2024-01-30T15:24:23;6.90;98.70
55135;DHT22;41031;44.750;11.308;2024-01-30T15:26:51;6.90;98.70
55135;DHT22;41031;44.750;11.308;2024-01-30T15:29:19;6.80;98.70
55135;DHT22;41031;44.750;11.308;2024-01-30T15:31:48;6.80;98.70
55135;DHT22;41031;44.750;11.308;2024-01-30T15:34:15;6.80;98.70